createdAt,value
2016-12-08T00:00:18.859Z,94.5
2016-12-08T00:10:33.594Z,95.1
2016-12-08T00:20:47.233Z,94.5
2016-12-08T00:31:02.137Z,94.4
2016-12-08T00:41:17.173Z,94.5
2016-12-08T00:51:30.768Z,94.3
2016-12-08T01:01:45.355Z,94.1
2016-12-08T01:11:58.691Z,94.1
2016-12-08T01:22:12.216Z,94.2
2016-12-08T01:32:26.142Z,94.4
2016-12-08T01:42:39.099Z,94.4
2016-12-08T01:52:54.104Z,93.4
2016-12-08T02:03:08.280Z,93.3
2016-12-08T02:13:21.881Z,93.2
2016-12-08T02:23:36.430Z,92.8
2016-12-08T02:33:51.101Z,93.7
2016-12-08T02:44:04.723Z,92.5
2016-12-08T02:54:19.145Z,92
2016-12-08T03:04:32.475Z,92.2
2016-12-08T03:14:45.881Z,91.7
2016-12-08T03:24:59.539Z,91.3
2016-12-08T03:35:14.158Z,91.4
2016-12-08T03:45:28.963Z,91.3
2016-12-08T03:55:42.914Z,90.9
2016-12-08T04:05:58.058Z,90.7
2016-12-08T04:16:12.225Z,90.7
2016-12-08T04:26:26.546Z,90.6
2016-12-08T04:36:40.504Z,90.2
2016-12-08T04:46:54.374Z,89.7
2016-12-08T04:57:08.281Z,89.6
2016-12-08T05:07:22.563Z,90.2
2016-12-08T05:17:37.555Z,89.8
2016-12-08T05:27:52.374Z,89.8
2016-12-08T05:38:07.406Z,89.3
2016-12-08T05:48:21.795Z,88.9
2016-12-08T05:58:36.733Z,88.8
2016-12-08T06:08:50.157Z,88.9
2016-12-08T06:19:04.906Z,89.2
2016-12-08T06:29:18.903Z,90
2016-12-08T06:39:31.917Z,90.2
2016-12-08T06:49:45.089Z,90.5
2016-12-08T06:59:58.521Z,91
2016-12-08T07:10:12.201Z,91.2
2016-12-08T07:20:27.181Z,91.6
2016-12-08T07:30:41.242Z,90.8
2016-12-08T07:40:54.496Z,90.6
2016-12-08T07:51:08.342Z,90.9
2016-12-08T08:01:22.541Z,90.8
2016-12-08T08:11:37.041Z,89.7
2016-12-08T08:21:51.479Z,88.6
2016-12-08T08:32:05.904Z,87.9
2016-12-08T08:42:19.784Z,86.4
2016-12-08T08:52:33.370Z,85.2
2016-12-08T09:02:47.426Z,84.2
2016-12-08T09:13:02.206Z,83.2
2016-12-08T09:23:16.592Z,81.7
2016-12-08T09:33:30.356Z,80.7
2016-12-08T09:43:44.152Z,79.5
2016-12-08T09:53:57.847Z,78.6
2016-12-08T10:04:12.149Z,77
2016-12-08T10:14:26.946Z,76.3
2016-12-08T10:24:40.946Z,75.1
2016-12-08T10:34:55.543Z,74.8
2016-12-08T10:45:08.726Z,74
2016-12-08T10:55:22.635Z,73.5
2016-12-08T11:05:36.825Z,72.9
2016-12-08T11:15:50.344Z,72.4
2016-12-08T11:26:03.523Z,71.4
2016-12-08T11:36:18.215Z,71.8
2016-12-08T11:46:31.657Z,71.8
2016-12-08T11:56:44.810Z,71.4
2016-12-08T12:06:59.512Z,71.8
2016-12-08T12:17:13.683Z,72.1
2016-12-08T12:37:41.419Z,72.4
2016-12-08T12:47:54.958Z,72.1
2016-12-08T12:58:09.952Z,72.3
2016-12-08T13:08:25.123Z,72.3
2016-12-08T13:18:40.298Z,72.3
2016-12-08T13:28:54.294Z,72.4
2016-12-08T13:39:07.385Z,72.2
2016-12-08T13:49:22.463Z,71.8
2016-12-08T13:59:37.450Z,72.3
2016-12-08T14:09:50.783Z,72.1
2016-12-08T14:20:05.882Z,72
2016-12-08T14:30:20.185Z,71.8
2016-12-08T14:40:34.638Z,72.3
2016-12-08T14:50:49.609Z,72.7
2016-12-08T15:01:03.831Z,73.3
2016-12-08T15:11:17.919Z,73.4
2016-12-08T15:21:31.150Z,73.5
2016-12-08T15:31:44.933Z,73.6
2016-12-08T15:41:59.924Z,73.7
2016-12-08T15:52:13.157Z,73.8
2016-12-08T16:02:27.786Z,74.6
2016-12-08T16:12:41.133Z,75
2016-12-08T16:22:55.495Z,75.8
2016-12-08T16:33:08.871Z,75.9
2016-12-08T16:43:23.437Z,76.5
2016-12-08T16:53:37.234Z,76.6
2016-12-08T17:03:51.432Z,76.5
2016-12-08T17:14:04.726Z,77.3
2016-12-08T17:24:17.791Z,77.4
2016-12-08T17:34:31.745Z,77.9
2016-12-08T17:44:46.957Z,78.9
2016-12-08T17:55:01.204Z,78.9
2016-12-08T18:05:15.596Z,79.2
2016-12-08T18:15:29.973Z,79.6
2016-12-08T18:25:44.880Z,79.7
2016-12-08T18:35:58.490Z,79.8
2016-12-08T18:46:12.023Z,81.1
2016-12-08T18:56:25.299Z,81.1
2016-12-08T19:06:40.057Z,82
2016-12-08T19:16:54.588Z,81.9
2016-12-08T19:27:08.187Z,84
2016-12-08T19:37:22.496Z,85.4
2016-12-08T19:47:35.953Z,85.5
2016-12-08T19:57:50.024Z,86.9
2016-12-08T20:08:04.424Z,87.4
2016-12-08T20:28:31.363Z,88.6
2016-12-08T20:38:46.464Z,90.1
2016-12-08T20:48:59.633Z,90.9
2016-12-08T20:59:13.204Z,90.9
2016-12-08T21:09:26.616Z,92.3
2016-12-08T21:19:40.433Z,93.6
2016-12-08T21:29:53.936Z,96.1
2016-12-08T21:40:08.877Z,98.7
2016-12-08T21:50:23.583Z,100
2016-12-08T22:00:37.937Z,100
2016-12-08T22:10:52.809Z,100
2016-12-08T22:21:06.359Z,100
2016-12-08T22:31:19.739Z,100
2016-12-08T22:41:33.697Z,100
2016-12-08T22:51:47.472Z,100
2016-12-08T23:02:01.068Z,100
2016-12-08T23:12:14.569Z,100
2016-12-08T23:22:28.324Z,100
2016-12-08T23:32:42.391Z,100
2016-12-08T23:42:56.864Z,100
2016-12-08T23:53:10.633Z,100
